Aviation Digital Data Service (ADDS)

Output produced by METARs form (1236 UTC 26 February 2017)
found at http://aviationweather.gov/adds/metars/
 
KLWB 261124Z 2612/2712 31005KT P6SM BKN035 
     FM261400 28009KT P6SM FEW040 
     FM262300 26004KT P6SM FEW250 
     FM270300 00000KT P6SM BKN110